<?xml version="1.0" encoding="UTF-8" standalone="no" ?>
<gpx xmlns="http://www.topografix.com/GPX/1/1" xmlns:xsi="http://www.w3.org/2001/XMLSchema-instance" xsi:schemaLocation="http://www.topografix.com/GPX/1/1 http://www.topografix.com/GPX/1/1/gpx.xsd" version="1.1" creator="VisuGPX - https://www.visugpx.com">
  <metadata>
    <name>9500404-mont avril mont pouroux</name>
  </metadata>
  <trk>
    <name><![CDATA[9500404-mont avril mont pouroux]]></name>
    <trkseg>
      <trkpt lat="46.75245" lon="4.7071">
        <ele>258</ele>
        <time>2022-05-05T04:44:45Z</time>
      </trkpt>
      <trkpt lat="46.75292" lon="4.70677">
        <ele>253</ele>
        <time>2022-05-05T04:45:55Z</time>
      </trkpt>
      <trkpt lat="46.75299" lon="4.70634">
        <ele>252</ele>
        <time>2022-05-05T04:46:35Z</time>
      </trkpt>
      <trkpt lat="46.75292" lon="4.70569">
        <ele>253</ele>
        <time>2022-05-05T04:47:35Z</time>
      </trkpt>
      <trkpt lat="46.75289" lon="4.70504">
        <ele>253</ele>
        <time>2022-05-05T04:48:35Z</time>
      </trkpt>
      <trkpt lat="46.75284" lon="4.70447">
        <ele>254</ele>
        <time>2022-05-05T04:49:27Z</time>
      </trkpt>
      <trkpt lat="46.75282" lon="4.70389">
        <ele>257</ele>
        <time>2022-05-05T04:50:20Z</time>
      </trkpt>
      <trkpt lat="46.75274" lon="4.70313">
        <ele>265</ele>
        <time>2022-05-05T04:51:31Z</time>
      </trkpt>
      <trkpt lat="46.75289" lon="4.70252">
        <ele>264</ele>
        <time>2022-05-05T04:52:30Z</time>
      </trkpt>
      <trkpt lat="46.75321" lon="4.70208">
        <ele>257</ele>
        <time>2022-05-05T04:53:29Z</time>
      </trkpt>
      <trkpt lat="46.75336" lon="4.70154">
        <ele>255</ele>
        <time>2022-05-05T04:54:22Z</time>
      </trkpt>
      <trkpt lat="46.75348" lon="4.701">
        <ele>251</ele>
        <time>2022-05-05T04:55:14Z</time>
      </trkpt>
      <trkpt lat="46.75336" lon="4.70042">
        <ele>250</ele>
        <time>2022-05-05T04:56:09Z</time>
      </trkpt>
      <trkpt lat="46.75336" lon="4.69995">
        <ele>247</ele>
        <time>2022-05-05T04:56:52Z</time>
      </trkpt>
      <trkpt lat="46.75331" lon="4.69941">
        <ele>246</ele>
        <time>2022-05-05T04:57:42Z</time>
      </trkpt>
      <trkpt lat="46.75324" lon="4.69891">
        <ele>247</ele>
        <time>2022-05-05T04:58:29Z</time>
      </trkpt>
      <trkpt lat="46.75319" lon="4.6984">
        <ele>248</ele>
        <time>2022-05-05T04:59:16Z</time>
      </trkpt>
      <trkpt lat="46.75306" lon="4.69797">
        <ele>249</ele>
        <time>2022-05-05T04:59:59Z</time>
      </trkpt>
      <trkpt lat="46.75299" lon="4.69739">
        <ele>250</ele>
        <time>2022-05-05T05:00:53Z</time>
      </trkpt>
      <trkpt lat="46.75284" lon="4.69696">
        <ele>253</ele>
        <time>2022-05-05T05:01:37Z</time>
      </trkpt>
      <trkpt lat="46.75272" lon="4.69588">
        <ele>257</ele>
        <time>2022-05-05T05:03:17Z</time>
      </trkpt>
      <trkpt lat="46.75274" lon="4.69526">
        <ele>256</ele>
        <time>2022-05-05T05:04:13Z</time>
      </trkpt>
      <trkpt lat="46.75257" lon="4.69483">
        <ele>257</ele>
        <time>2022-05-05T05:04:59Z</time>
      </trkpt>
      <trkpt lat="46.75254" lon="4.69422">
        <ele>254</ele>
        <time>2022-05-05T05:05:55Z</time>
      </trkpt>
      <trkpt lat="46.75249" lon="4.69375">
        <ele>253</ele>
        <time>2022-05-05T05:06:38Z</time>
      </trkpt>
      <trkpt lat="46.75237" lon="4.69324">
        <ele>251</ele>
        <time>2022-05-05T05:07:28Z</time>
      </trkpt>
      <trkpt lat="46.75173" lon="4.69263">
        <ele>251</ele>
        <time>2022-05-05T05:09:10Z</time>
      </trkpt>
      <trkpt lat="46.75158" lon="4.69234">
        <ele>251</ele>
        <time>2022-05-05T05:09:43Z</time>
      </trkpt>
      <trkpt lat="46.75146" lon="4.69205">
        <ele>252</ele>
        <time>2022-05-05T05:10:14Z</time>
      </trkpt>
      <trkpt lat="46.75136" lon="4.69133">
        <ele>252</ele>
        <time>2022-05-05T05:11:21Z</time>
      </trkpt>
      <trkpt lat="46.75136" lon="4.69035">
        <ele>251</ele>
        <time>2022-05-05T05:12:51Z</time>
      </trkpt>
      <trkpt lat="46.75106" lon="4.68999">
        <ele>251</ele>
        <time>2022-05-05T05:13:42Z</time>
      </trkpt>
      <trkpt lat="46.7502" lon="4.68913">
        <ele>253</ele>
        <time>2022-05-05T05:16:01Z</time>
      </trkpt>
      <trkpt lat="46.75042" lon="4.68841">
        <ele>256</ele>
        <time>2022-05-05T05:17:14Z</time>
      </trkpt>
      <trkpt lat="46.75096" lon="4.68725">
        <ele>261</ele>
        <time>2022-05-05T05:19:22Z</time>
      </trkpt>
      <trkpt lat="46.75106" lon="4.68639">
        <ele>265</ele>
        <time>2022-05-05T05:20:42Z</time>
      </trkpt>
      <trkpt lat="46.75138" lon="4.6853">
        <ele>269</ele>
        <time>2022-05-05T05:22:30Z</time>
      </trkpt>
      <trkpt lat="46.75227" lon="4.68617">
        <ele>259</ele>
        <time>2022-05-05T05:24:53Z</time>
      </trkpt>
      <trkpt lat="46.75287" lon="4.68653">
        <ele>258</ele>
        <time>2022-05-05T05:26:19Z</time>
      </trkpt>
      <trkpt lat="46.75381" lon="4.68642">
        <ele>264</ele>
        <time>2022-05-05T05:28:25Z</time>
      </trkpt>
      <trkpt lat="46.75447" lon="4.68606">
        <ele>270</ele>
        <time>2022-05-05T05:29:59Z</time>
      </trkpt>
      <trkpt lat="46.75514" lon="4.68595">
        <ele>277</ele>
        <time>2022-05-05T05:31:29Z</time>
      </trkpt>
      <trkpt lat="46.75591" lon="4.6857">
        <ele>284</ele>
        <time>2022-05-05T05:33:15Z</time>
      </trkpt>
      <trkpt lat="46.7568" lon="4.68588">
        <ele>291</ele>
        <time>2022-05-05T05:35:14Z</time>
      </trkpt>
      <trkpt lat="46.75729" lon="4.68646">
        <ele>294</ele>
        <time>2022-05-05T05:36:39Z</time>
      </trkpt>
      <trkpt lat="46.75764" lon="4.68711">
        <ele>295</ele>
        <time>2022-05-05T05:37:54Z</time>
      </trkpt>
      <trkpt lat="46.7576" lon="4.6879">
        <ele>297</ele>
        <time>2022-05-05T05:39:07Z</time>
      </trkpt>
      <trkpt lat="46.75825" lon="4.68869">
        <ele>299</ele>
        <time>2022-05-05T05:41:00Z</time>
      </trkpt>
      <trkpt lat="46.75872" lon="4.68938">
        <ele>306</ele>
        <time>2022-05-05T05:42:28Z</time>
      </trkpt>
      <trkpt lat="46.75889" lon="4.69007">
        <ele>312</ele>
        <time>2022-05-05T05:43:36Z</time>
      </trkpt>
      <trkpt lat="46.75901" lon="4.691">
        <ele>317</ele>
        <time>2022-05-05T05:45:02Z</time>
      </trkpt>
      <trkpt lat="46.75918" lon="4.69176">
        <ele>322</ele>
        <time>2022-05-05T05:46:15Z</time>
      </trkpt>
      <trkpt lat="46.75946" lon="4.69263">
        <ele>331</ele>
        <time>2022-05-05T05:47:43Z</time>
      </trkpt>
      <trkpt lat="46.76015" lon="4.69205">
        <ele>344</ele>
        <time>2022-05-05T05:49:29Z</time>
      </trkpt>
      <trkpt lat="46.76094" lon="4.69241">
        <ele>361</ele>
        <time>2022-05-05T05:51:20Z</time>
      </trkpt>
      <trkpt lat="46.76163" lon="4.6922">
        <ele>377</ele>
        <time>2022-05-05T05:52:54Z</time>
      </trkpt>
      <trkpt lat="46.76188" lon="4.6918">
        <ele>383</ele>
        <time>2022-05-05T05:53:43Z</time>
      </trkpt>
      <trkpt lat="46.76185" lon="4.69133">
        <ele>385</ele>
        <time>2022-05-05T05:54:26Z</time>
      </trkpt>
      <trkpt lat="46.76168" lon="4.69075">
        <ele>384</ele>
        <time>2022-05-05T05:55:24Z</time>
      </trkpt>
      <trkpt lat="46.76173" lon="4.69043">
        <ele>382</ele>
        <time>2022-05-05T05:55:54Z</time>
      </trkpt>
      <trkpt lat="46.76235" lon="4.69017">
        <ele>389</ele>
        <time>2022-05-05T05:57:20Z</time>
      </trkpt>
      <trkpt lat="46.76314" lon="4.69025">
        <ele>396</ele>
        <time>2022-05-05T05:59:06Z</time>
      </trkpt>
      <trkpt lat="46.76376" lon="4.69111">
        <ele>405</ele>
        <time>2022-05-05T06:01:00Z</time>
      </trkpt>
      <trkpt lat="46.76413" lon="4.69176">
        <ele>409</ele>
        <time>2022-05-05T06:02:17Z</time>
      </trkpt>
      <trkpt lat="46.76403" lon="4.6923">
        <ele>407</ele>
        <time>2022-05-05T06:03:08Z</time>
      </trkpt>
      <trkpt lat="46.76398" lon="4.69306">
        <ele>403</ele>
        <time>2022-05-05T06:04:18Z</time>
      </trkpt>
      <trkpt lat="46.76428" lon="4.69422">
        <ele>397</ele>
        <time>2022-05-05T06:06:12Z</time>
      </trkpt>
      <trkpt lat="46.76504" lon="4.69559">
        <ele>386</ele>
        <time>2022-05-05T06:08:53Z</time>
      </trkpt>
      <trkpt lat="46.76571" lon="4.69655">
        <ele>375</ele>
        <time>2022-05-05T06:10:58Z</time>
      </trkpt>
      <trkpt lat="46.76553" lon="4.69684">
        <ele>372</ele>
        <time>2022-05-05T06:11:34Z</time>
      </trkpt>
      <trkpt lat="46.76556" lon="4.69716">
        <ele>368</ele>
        <time>2022-05-05T06:12:03Z</time>
      </trkpt>
      <trkpt lat="46.76547" lon="4.69817">
        <ele>356</ele>
        <time>2022-05-05T06:13:36Z</time>
      </trkpt>
      <trkpt lat="46.76539" lon="4.6984">
        <ele>354</ele>
        <time>2022-05-05T06:14:00Z</time>
      </trkpt>
      <trkpt lat="46.7652" lon="4.69901">
        <ele>348</ele>
        <time>2022-05-05T06:15:01Z</time>
      </trkpt>
      <trkpt lat="46.7646" lon="4.70056">
        <ele>343</ele>
        <time>2022-05-05T06:17:44Z</time>
      </trkpt>
      <trkpt lat="46.76455" lon="4.70125">
        <ele>345</ele>
        <time>2022-05-05T06:18:47Z</time>
      </trkpt>
      <trkpt lat="46.76441" lon="4.7021">
        <ele>345</ele>
        <time>2022-05-05T06:20:07Z</time>
      </trkpt>
      <trkpt lat="46.76434" lon="4.7031">
        <ele>341</ele>
        <time>2022-05-05T06:21:39Z</time>
      </trkpt>
      <trkpt lat="46.76407" lon="4.70359">
        <ele>338</ele>
        <time>2022-05-05T06:22:37Z</time>
      </trkpt>
      <trkpt lat="46.76399" lon="4.70449">
        <ele>329</ele>
        <time>2022-05-05T06:24:00Z</time>
      </trkpt>
      <trkpt lat="46.76387" lon="4.70495">
        <ele>323</ele>
        <time>2022-05-05T06:24:45Z</time>
      </trkpt>
      <trkpt lat="46.76403" lon="4.70574">
        <ele>319</ele>
        <time>2022-05-05T06:26:00Z</time>
      </trkpt>
      <trkpt lat="46.76432" lon="4.70596">
        <ele>316</ele>
        <time>2022-05-05T06:26:43Z</time>
      </trkpt>
      <trkpt lat="46.765" lon="4.70488">
        <ele>318</ele>
        <time>2022-05-05T06:28:58Z</time>
      </trkpt>
      <trkpt lat="46.76597" lon="4.70444">
        <ele>308</ele>
        <time>2022-05-05T06:31:13Z</time>
      </trkpt>
      <trkpt lat="46.76688" lon="4.70359">
        <ele>291</ele>
        <time>2022-05-05T06:33:37Z</time>
      </trkpt>
      <trkpt lat="46.76858" lon="4.70198">
        <ele>272</ele>
        <time>2022-05-05T06:38:08Z</time>
      </trkpt>
      <trkpt lat="46.76883" lon="4.70179">
        <ele>270</ele>
        <time>2022-05-05T06:38:45Z</time>
      </trkpt>
      <trkpt lat="46.76907" lon="4.70187">
        <ele>265</ele>
        <time>2022-05-05T06:39:18Z</time>
      </trkpt>
      <trkpt lat="46.76907" lon="4.70237">
        <ele>263</ele>
        <time>2022-05-05T06:40:04Z</time>
      </trkpt>
      <trkpt lat="46.76912" lon="4.70302">
        <ele>260</ele>
        <time>2022-05-05T06:41:04Z</time>
      </trkpt>
      <trkpt lat="46.76925" lon="4.70342">
        <ele>258</ele>
        <time>2022-05-05T06:41:44Z</time>
      </trkpt>
      <trkpt lat="46.76954" lon="4.70385">
        <ele>256</ele>
        <time>2022-05-05T06:42:39Z</time>
      </trkpt>
      <trkpt lat="46.76962" lon="4.70359">
        <ele>256</ele>
        <time>2022-05-05T06:43:05Z</time>
      </trkpt>
      <trkpt lat="46.7698" lon="4.70312">
        <ele>256</ele>
        <time>2022-05-05T06:43:55Z</time>
      </trkpt>
      <trkpt lat="46.76988" lon="4.70275">
        <ele>256</ele>
        <time>2022-05-05T06:44:30Z</time>
      </trkpt>
      <trkpt lat="46.76997" lon="4.70245">
        <ele>255</ele>
        <time>2022-05-05T06:45:00Z</time>
      </trkpt>
      <trkpt lat="46.77007" lon="4.70213">
        <ele>256</ele>
        <time>2022-05-05T06:45:32Z</time>
      </trkpt>
      <trkpt lat="46.77024" lon="4.70173">
        <ele>257</ele>
        <time>2022-05-05T06:46:15Z</time>
      </trkpt>
      <trkpt lat="46.77046" lon="4.70144">
        <ele>258</ele>
        <time>2022-05-05T06:46:55Z</time>
      </trkpt>
      <trkpt lat="46.7706" lon="4.70165">
        <ele>258</ele>
        <time>2022-05-05T06:47:21Z</time>
      </trkpt>
      <trkpt lat="46.77084" lon="4.70194">
        <ele>259</ele>
        <time>2022-05-05T06:48:03Z</time>
      </trkpt>
      <trkpt lat="46.77118" lon="4.70198">
        <ele>264</ele>
        <time>2022-05-05T06:48:49Z</time>
      </trkpt>
      <trkpt lat="46.77142" lon="4.70213">
        <ele>267</ele>
        <time>2022-05-05T06:49:23Z</time>
      </trkpt>
      <trkpt lat="46.77166" lon="4.7023">
        <ele>270</ele>
        <time>2022-05-05T06:49:59Z</time>
      </trkpt>
      <trkpt lat="46.77195" lon="4.70245">
        <ele>275</ele>
        <time>2022-05-05T06:50:40Z</time>
      </trkpt>
      <trkpt lat="46.77227" lon="4.70256">
        <ele>280</ele>
        <time>2022-05-05T06:51:24Z</time>
      </trkpt>
      <trkpt lat="46.77249" lon="4.70279">
        <ele>283</ele>
        <time>2022-05-05T06:52:00Z</time>
      </trkpt>
      <trkpt lat="46.77259" lon="4.70302">
        <ele>284</ele>
        <time>2022-05-05T06:52:25Z</time>
      </trkpt>
      <trkpt lat="46.77276" lon="4.70339">
        <ele>287</ele>
        <time>2022-05-05T06:53:06Z</time>
      </trkpt>
      <trkpt lat="46.77289" lon="4.70371">
        <ele>290</ele>
        <time>2022-05-05T06:53:40Z</time>
      </trkpt>
      <trkpt lat="46.77297" lon="4.70394">
        <ele>292</ele>
        <time>2022-05-05T06:54:03Z</time>
      </trkpt>
      <trkpt lat="46.77307" lon="4.70423">
        <ele>294</ele>
        <time>2022-05-05T06:54:33Z</time>
      </trkpt>
      <trkpt lat="46.77313" lon="4.70458">
        <ele>297</ele>
        <time>2022-05-05T06:55:06Z</time>
      </trkpt>
      <trkpt lat="46.77312" lon="4.70481">
        <ele>297</ele>
        <time>2022-05-05T06:55:27Z</time>
      </trkpt>
      <trkpt lat="46.77304" lon="4.70534">
        <ele>298</ele>
        <time>2022-05-05T06:56:17Z</time>
      </trkpt>
      <trkpt lat="46.77306" lon="4.70552">
        <ele>299</ele>
        <time>2022-05-05T06:56:33Z</time>
      </trkpt>
      <trkpt lat="46.77312" lon="4.70571">
        <ele>302</ele>
        <time>2022-05-05T06:56:52Z</time>
      </trkpt>
      <trkpt lat="46.77324" lon="4.70586">
        <ele>304</ele>
        <time>2022-05-05T06:57:13Z</time>
      </trkpt>
      <trkpt lat="46.77331" lon="4.70605">
        <ele>306</ele>
        <time>2022-05-05T06:57:33Z</time>
      </trkpt>
      <trkpt lat="46.77337" lon="4.70637">
        <ele>309</ele>
        <time>2022-05-05T06:58:03Z</time>
      </trkpt>
      <trkpt lat="46.7734" lon="4.70656">
        <ele>310</ele>
        <time>2022-05-05T06:58:21Z</time>
      </trkpt>
      <trkpt lat="46.7734" lon="4.70689">
        <ele>312</ele>
        <time>2022-05-05T06:58:51Z</time>
      </trkpt>
      <trkpt lat="46.77342" lon="4.70724">
        <ele>314</ele>
        <time>2022-05-05T06:59:24Z</time>
      </trkpt>
      <trkpt lat="46.77326" lon="4.70712">
        <ele>310</ele>
        <time>2022-05-05T06:59:48Z</time>
      </trkpt>
      <trkpt lat="46.77312" lon="4.70706">
        <ele>308</ele>
        <time>2022-05-05T07:00:07Z</time>
      </trkpt>
      <trkpt lat="46.77276" lon="4.70681">
        <ele>300</ele>
        <time>2022-05-05T07:01:00Z</time>
      </trkpt>
      <trkpt lat="46.77263" lon="4.70703">
        <ele>299</ele>
        <time>2022-05-05T07:01:27Z</time>
      </trkpt>
      <trkpt lat="46.77254" lon="4.70728">
        <ele>298</ele>
        <time>2022-05-05T07:01:53Z</time>
      </trkpt>
      <trkpt lat="46.7725" lon="4.70756">
        <ele>298</ele>
        <time>2022-05-05T07:02:19Z</time>
      </trkpt>
      <trkpt lat="46.7725" lon="4.70782">
        <ele>298</ele>
        <time>2022-05-05T07:02:42Z</time>
      </trkpt>
      <trkpt lat="46.77246" lon="4.70799">
        <ele>297</ele>
        <time>2022-05-05T07:02:59Z</time>
      </trkpt>
      <trkpt lat="46.77238" lon="4.70815">
        <ele>296</ele>
        <time>2022-05-05T07:03:17Z</time>
      </trkpt>
      <trkpt lat="46.77232" lon="4.70834">
        <ele>295</ele>
        <time>2022-05-05T07:03:36Z</time>
      </trkpt>
      <trkpt lat="46.7722" lon="4.70862">
        <ele>296</ele>
        <time>2022-05-05T07:04:06Z</time>
      </trkpt>
      <trkpt lat="46.77209" lon="4.70872">
        <ele>295</ele>
        <time>2022-05-05T07:04:24Z</time>
      </trkpt>
      <trkpt lat="46.77193" lon="4.70884">
        <ele>293</ele>
        <time>2022-05-05T07:04:48Z</time>
      </trkpt>
      <trkpt lat="46.77179" lon="4.70892">
        <ele>292</ele>
        <time>2022-05-05T07:05:08Z</time>
      </trkpt>
      <trkpt lat="46.77166" lon="4.70894">
        <ele>290</ele>
        <time>2022-05-05T07:05:25Z</time>
      </trkpt>
      <trkpt lat="46.77157" lon="4.70902">
        <ele>289</ele>
        <time>2022-05-05T07:05:39Z</time>
      </trkpt>
      <trkpt lat="46.77137" lon="4.70913">
        <ele>286</ele>
        <time>2022-05-05T07:06:08Z</time>
      </trkpt>
      <trkpt lat="46.77119" lon="4.7092">
        <ele>284</ele>
        <time>2022-05-05T07:06:33Z</time>
      </trkpt>
      <trkpt lat="46.77105" lon="4.70929">
        <ele>282</ele>
        <time>2022-05-05T07:06:53Z</time>
      </trkpt>
      <trkpt lat="46.77092" lon="4.70938">
        <ele>281</ele>
        <time>2022-05-05T07:07:12Z</time>
      </trkpt>
      <trkpt lat="46.77085" lon="4.70949">
        <ele>281</ele>
        <time>2022-05-05T07:07:26Z</time>
      </trkpt>
      <trkpt lat="46.77079" lon="4.70957">
        <ele>281</ele>
        <time>2022-05-05T07:07:37Z</time>
      </trkpt>
      <trkpt lat="46.77074" lon="4.70971">
        <ele>281</ele>
        <time>2022-05-05T07:07:51Z</time>
      </trkpt>
      <trkpt lat="46.77069" lon="4.7098">
        <ele>281</ele>
        <time>2022-05-05T07:08:02Z</time>
      </trkpt>
      <trkpt lat="46.77065" lon="4.7099">
        <ele>282</ele>
        <time>2022-05-05T07:08:12Z</time>
      </trkpt>
      <trkpt lat="46.77021" lon="4.7106">
        <ele>281</ele>
        <time>2022-05-05T07:09:39Z</time>
      </trkpt>
      <trkpt lat="46.77008" lon="4.71081">
        <ele>282</ele>
        <time>2022-05-05T07:10:05Z</time>
      </trkpt>
      <trkpt lat="46.76996" lon="4.71089">
        <ele>280</ele>
        <time>2022-05-05T07:10:23Z</time>
      </trkpt>
      <trkpt lat="46.76986" lon="4.71104">
        <ele>278</ele>
        <time>2022-05-05T07:10:42Z</time>
      </trkpt>
      <trkpt lat="46.76983" lon="4.71124">
        <ele>278</ele>
        <time>2022-05-05T07:11:01Z</time>
      </trkpt>
      <trkpt lat="46.76977" lon="4.71157">
        <ele>277</ele>
        <time>2022-05-05T07:11:32Z</time>
      </trkpt>
      <trkpt lat="46.76961" lon="4.7117">
        <ele>275</ele>
        <time>2022-05-05T07:11:56Z</time>
      </trkpt>
      <trkpt lat="46.76947" lon="4.71179">
        <ele>273</ele>
        <time>2022-05-05T07:12:17Z</time>
      </trkpt>
      <trkpt lat="46.76937" lon="4.71189">
        <ele>271</ele>
        <time>2022-05-05T07:12:33Z</time>
      </trkpt>
      <trkpt lat="46.76924" lon="4.712">
        <ele>269</ele>
        <time>2022-05-05T07:12:53Z</time>
      </trkpt>
      <trkpt lat="46.76919" lon="4.71219">
        <ele>267</ele>
        <time>2022-05-05T07:13:11Z</time>
      </trkpt>
      <trkpt lat="46.76915" lon="4.71243">
        <ele>266</ele>
        <time>2022-05-05T07:13:34Z</time>
      </trkpt>
      <trkpt lat="46.76908" lon="4.71254">
        <ele>264</ele>
        <time>2022-05-05T07:13:48Z</time>
      </trkpt>
      <trkpt lat="46.769" lon="4.71269">
        <ele>262</ele>
        <time>2022-05-05T07:14:05Z</time>
      </trkpt>
      <trkpt lat="46.76897" lon="4.71303">
        <ele>260</ele>
        <time>2022-05-05T07:14:36Z</time>
      </trkpt>
      <trkpt lat="46.7689" lon="4.71307">
        <ele>259</ele>
        <time>2022-05-05T07:14:46Z</time>
      </trkpt>
      <trkpt lat="46.76893" lon="4.71332">
        <ele>259</ele>
        <time>2022-05-05T07:15:10Z</time>
      </trkpt>
      <trkpt lat="46.76894" lon="4.71361">
        <ele>259</ele>
        <time>2022-05-05T07:15:36Z</time>
      </trkpt>
      <trkpt lat="46.76891" lon="4.71403">
        <ele>259</ele>
        <time>2022-05-05T07:16:15Z</time>
      </trkpt>
      <trkpt lat="46.76891" lon="4.71444">
        <ele>261</ele>
        <time>2022-05-05T07:16:52Z</time>
      </trkpt>
      <trkpt lat="46.7688" lon="4.71446">
        <ele>260</ele>
        <time>2022-05-05T07:17:07Z</time>
      </trkpt>
      <trkpt lat="46.76869" lon="4.71458">
        <ele>259</ele>
        <time>2022-05-05T07:17:25Z</time>
      </trkpt>
      <trkpt lat="46.76855" lon="4.71469">
        <ele>257</ele>
        <time>2022-05-05T07:17:47Z</time>
      </trkpt>
      <trkpt lat="46.76848" lon="4.71477">
        <ele>257</ele>
        <time>2022-05-05T07:17:58Z</time>
      </trkpt>
      <trkpt lat="46.76839" lon="4.71489">
        <ele>256</ele>
        <time>2022-05-05T07:18:15Z</time>
      </trkpt>
      <trkpt lat="46.76833" lon="4.71507">
        <ele>256</ele>
        <time>2022-05-05T07:18:33Z</time>
      </trkpt>
      <trkpt lat="46.76827" lon="4.71513">
        <ele>255</ele>
        <time>2022-05-05T07:18:43Z</time>
      </trkpt>
      <trkpt lat="46.7682" lon="4.71534">
        <ele>254</ele>
        <time>2022-05-05T07:19:04Z</time>
      </trkpt>
      <trkpt lat="46.76813" lon="4.71548">
        <ele>254</ele>
        <time>2022-05-05T07:19:20Z</time>
      </trkpt>
      <trkpt lat="46.76807" lon="4.71586">
        <ele>253</ele>
        <time>2022-05-05T07:19:56Z</time>
      </trkpt>
      <trkpt lat="46.7681" lon="4.71606">
        <ele>253</ele>
        <time>2022-05-05T07:20:14Z</time>
      </trkpt>
      <trkpt lat="46.76798" lon="4.71607">
        <ele>251</ele>
        <time>2022-05-05T07:20:30Z</time>
      </trkpt>
      <trkpt lat="46.7678" lon="4.71609">
        <ele>249</ele>
        <time>2022-05-05T07:20:54Z</time>
      </trkpt>
      <trkpt lat="46.76759" lon="4.71628">
        <ele>246</ele>
        <time>2022-05-05T07:21:27Z</time>
      </trkpt>
      <trkpt lat="46.76746" lon="4.71638">
        <ele>245</ele>
        <time>2022-05-05T07:21:47Z</time>
      </trkpt>
      <trkpt lat="46.7673" lon="4.71636">
        <ele>243</ele>
        <time>2022-05-05T07:22:08Z</time>
      </trkpt>
      <trkpt lat="46.767" lon="4.71595">
        <ele>241</ele>
        <time>2022-05-05T07:23:03Z</time>
      </trkpt>
      <trkpt lat="46.7669" lon="4.71574">
        <ele>240</ele>
        <time>2022-05-05T07:23:27Z</time>
      </trkpt>
      <trkpt lat="46.76681" lon="4.71565">
        <ele>239</ele>
        <time>2022-05-05T07:23:41Z</time>
      </trkpt>
      <trkpt lat="46.76669" lon="4.71552">
        <ele>238</ele>
        <time>2022-05-05T07:24:01Z</time>
      </trkpt>
      <trkpt lat="46.76656" lon="4.7155">
        <ele>238</ele>
        <time>2022-05-05T07:24:19Z</time>
      </trkpt>
      <trkpt lat="46.76638" lon="4.71549">
        <ele>238</ele>
        <time>2022-05-05T07:24:43Z</time>
      </trkpt>
      <trkpt lat="46.76623" lon="4.71548">
        <ele>238</ele>
        <time>2022-05-05T07:25:03Z</time>
      </trkpt>
      <trkpt lat="46.76611" lon="4.71532">
        <ele>239</ele>
        <time>2022-05-05T07:25:24Z</time>
      </trkpt>
      <trkpt lat="46.76595" lon="4.71501">
        <ele>241</ele>
        <time>2022-05-05T07:26:00Z</time>
      </trkpt>
      <trkpt lat="46.76575" lon="4.71469">
        <ele>243</ele>
        <time>2022-05-05T07:26:39Z</time>
      </trkpt>
      <trkpt lat="46.76553" lon="4.71448">
        <ele>246</ele>
        <time>2022-05-05T07:27:14Z</time>
      </trkpt>
      <trkpt lat="46.76544" lon="4.71431">
        <ele>248</ele>
        <time>2022-05-05T07:27:34Z</time>
      </trkpt>
      <trkpt lat="46.76531" lon="4.71407">
        <ele>251</ele>
        <time>2022-05-05T07:28:02Z</time>
      </trkpt>
      <trkpt lat="46.76518" lon="4.71387">
        <ele>254</ele>
        <time>2022-05-05T07:28:27Z</time>
      </trkpt>
      <trkpt lat="46.76505" lon="4.71363">
        <ele>258</ele>
        <time>2022-05-05T07:28:55Z</time>
      </trkpt>
      <trkpt lat="46.76492" lon="4.71345">
        <ele>261</ele>
        <time>2022-05-05T07:29:19Z</time>
      </trkpt>
      <trkpt lat="46.76478" lon="4.71331">
        <ele>264</ele>
        <time>2022-05-05T07:29:42Z</time>
      </trkpt>
      <trkpt lat="46.76464" lon="4.71327">
        <ele>265</ele>
        <time>2022-05-05T07:30:01Z</time>
      </trkpt>
      <trkpt lat="46.76454" lon="4.71335">
        <ele>266</ele>
        <time>2022-05-05T07:30:16Z</time>
      </trkpt>
      <trkpt lat="46.76435" lon="4.71351">
        <ele>266</ele>
        <time>2022-05-05T07:30:45Z</time>
      </trkpt>
      <trkpt lat="46.76417" lon="4.71357">
        <ele>267</ele>
        <time>2022-05-05T07:31:10Z</time>
      </trkpt>
      <trkpt lat="46.76394" lon="4.7136">
        <ele>267</ele>
        <time>2022-05-05T07:31:41Z</time>
      </trkpt>
      <trkpt lat="46.76362" lon="4.71353">
        <ele>269</ele>
        <time>2022-05-05T07:32:24Z</time>
      </trkpt>
      <trkpt lat="46.7634" lon="4.71339">
        <ele>270</ele>
        <time>2022-05-05T07:32:56Z</time>
      </trkpt>
      <trkpt lat="46.76323" lon="4.71331">
        <ele>271</ele>
        <time>2022-05-05T07:33:20Z</time>
      </trkpt>
      <trkpt lat="46.76301" lon="4.71316">
        <ele>271</ele>
        <time>2022-05-05T07:33:52Z</time>
      </trkpt>
      <trkpt lat="46.76251" lon="4.713">
        <ele>272</ele>
        <time>2022-05-05T07:35:01Z</time>
      </trkpt>
      <trkpt lat="46.76234" lon="4.71289">
        <ele>271</ele>
        <time>2022-05-05T07:35:25Z</time>
      </trkpt>
      <trkpt lat="46.76221" lon="4.71285">
        <ele>271</ele>
        <time>2022-05-05T07:35:43Z</time>
      </trkpt>
      <trkpt lat="46.76195" lon="4.71281">
        <ele>269</ele>
        <time>2022-05-05T07:36:18Z</time>
      </trkpt>
      <trkpt lat="46.7618" lon="4.71272">
        <ele>268</ele>
        <time>2022-05-05T07:36:40Z</time>
      </trkpt>
      <trkpt lat="46.76159" lon="4.71256">
        <ele>268</ele>
        <time>2022-05-05T07:37:11Z</time>
      </trkpt>
      <trkpt lat="46.76145" lon="4.71246">
        <ele>267</ele>
        <time>2022-05-05T07:37:32Z</time>
      </trkpt>
      <trkpt lat="46.76127" lon="4.71235">
        <ele>265</ele>
        <time>2022-05-05T07:37:58Z</time>
      </trkpt>
      <trkpt lat="46.76114" lon="4.71226">
        <ele>264</ele>
        <time>2022-05-05T07:38:17Z</time>
      </trkpt>
      <trkpt lat="46.76103" lon="4.71218">
        <ele>263</ele>
        <time>2022-05-05T07:38:34Z</time>
      </trkpt>
      <trkpt lat="46.76093" lon="4.71208">
        <ele>262</ele>
        <time>2022-05-05T07:38:50Z</time>
      </trkpt>
      <trkpt lat="46.76083" lon="4.71196">
        <ele>262</ele>
        <time>2022-05-05T07:39:07Z</time>
      </trkpt>
      <trkpt lat="46.76072" lon="4.71174">
        <ele>261</ele>
        <time>2022-05-05T07:39:32Z</time>
      </trkpt>
      <trkpt lat="46.76059" lon="4.71156">
        <ele>261</ele>
        <time>2022-05-05T07:39:56Z</time>
      </trkpt>
      <trkpt lat="46.76051" lon="4.71148">
        <ele>260</ele>
        <time>2022-05-05T07:40:09Z</time>
      </trkpt>
      <trkpt lat="46.76039" lon="4.71118">
        <ele>260</ele>
        <time>2022-05-05T07:40:41Z</time>
      </trkpt>
      <trkpt lat="46.76031" lon="4.71133">
        <ele>259</ele>
        <time>2022-05-05T07:40:58Z</time>
      </trkpt>
      <trkpt lat="46.76022" lon="4.71153">
        <ele>257</ele>
        <time>2022-05-05T07:41:20Z</time>
      </trkpt>
      <trkpt lat="46.76009" lon="4.71179">
        <ele>254</ele>
        <time>2022-05-05T07:41:49Z</time>
      </trkpt>
      <trkpt lat="46.75996" lon="4.71198">
        <ele>252</ele>
        <time>2022-05-05T07:42:14Z</time>
      </trkpt>
      <trkpt lat="46.75985" lon="4.71225">
        <ele>249</ele>
        <time>2022-05-05T07:42:43Z</time>
      </trkpt>
      <trkpt lat="46.75973" lon="4.71248">
        <ele>247</ele>
        <time>2022-05-05T07:43:09Z</time>
      </trkpt>
      <trkpt lat="46.7596" lon="4.71271">
        <ele>245</ele>
        <time>2022-05-05T07:43:36Z</time>
      </trkpt>
      <trkpt lat="46.75951" lon="4.71286">
        <ele>244</ele>
        <time>2022-05-05T07:43:54Z</time>
      </trkpt>
      <trkpt lat="46.75941" lon="4.71301">
        <ele>243</ele>
        <time>2022-05-05T07:44:14Z</time>
      </trkpt>
      <trkpt lat="46.75935" lon="4.71309">
        <ele>242</ele>
        <time>2022-05-05T07:44:24Z</time>
      </trkpt>
      <trkpt lat="46.75918" lon="4.71343">
        <ele>241</ele>
        <time>2022-05-05T07:45:03Z</time>
      </trkpt>
      <trkpt lat="46.75913" lon="4.71358">
        <ele>240</ele>
        <time>2022-05-05T07:45:18Z</time>
      </trkpt>
      <trkpt lat="46.75904" lon="4.71373">
        <ele>239</ele>
        <time>2022-05-05T07:45:36Z</time>
      </trkpt>
      <trkpt lat="46.75893" lon="4.71386">
        <ele>238</ele>
        <time>2022-05-05T07:45:55Z</time>
      </trkpt>
      <trkpt lat="46.75884" lon="4.71379">
        <ele>238</ele>
        <time>2022-05-05T07:46:09Z</time>
      </trkpt>
      <trkpt lat="46.75866" lon="4.7136">
        <ele>238</ele>
        <time>2022-05-05T07:46:39Z</time>
      </trkpt>
      <trkpt lat="46.75846" lon="4.71341">
        <ele>238</ele>
        <time>2022-05-05T07:47:10Z</time>
      </trkpt>
      <trkpt lat="46.75818" lon="4.71325">
        <ele>237</ele>
        <time>2022-05-05T07:47:51Z</time>
      </trkpt>
      <trkpt lat="46.75816" lon="4.713">
        <ele>237</ele>
        <time>2022-05-05T07:48:14Z</time>
      </trkpt>
      <trkpt lat="46.75816" lon="4.71268">
        <ele>237</ele>
        <time>2022-05-05T07:48:43Z</time>
      </trkpt>
      <trkpt lat="46.75814" lon="4.71239">
        <ele>237</ele>
        <time>2022-05-05T07:49:09Z</time>
      </trkpt>
      <trkpt lat="46.75802" lon="4.71229">
        <ele>237</ele>
        <time>2022-05-05T07:49:28Z</time>
      </trkpt>
      <trkpt lat="46.75781" lon="4.71219">
        <ele>236</ele>
        <time>2022-05-05T07:49:57Z</time>
      </trkpt>
      <trkpt lat="46.7576" lon="4.71207">
        <ele>235</ele>
        <time>2022-05-05T07:50:27Z</time>
      </trkpt>
      <trkpt lat="46.75729" lon="4.71193">
        <ele>233</ele>
        <time>2022-05-05T07:51:11Z</time>
      </trkpt>
      <trkpt lat="46.757" lon="4.71173">
        <ele>232</ele>
        <time>2022-05-05T07:51:54Z</time>
      </trkpt>
      <trkpt lat="46.75658" lon="4.71155">
        <ele>230</ele>
        <time>2022-05-05T07:52:52Z</time>
      </trkpt>
      <trkpt lat="46.7564" lon="4.71138">
        <ele>230</ele>
        <time>2022-05-05T07:53:21Z</time>
      </trkpt>
      <trkpt lat="46.75615" lon="4.71124">
        <ele>230</ele>
        <time>2022-05-05T07:53:56Z</time>
      </trkpt>
      <trkpt lat="46.7557" lon="4.71094">
        <ele>229</ele>
        <time>2022-05-05T07:55:02Z</time>
      </trkpt>
      <trkpt lat="46.75546" lon="4.71085">
        <ele>229</ele>
        <time>2022-05-05T07:55:35Z</time>
      </trkpt>
      <trkpt lat="46.75509" lon="4.71047">
        <ele>228</ele>
        <time>2022-05-05T07:56:36Z</time>
      </trkpt>
      <trkpt lat="46.75492" lon="4.71044">
        <ele>228</ele>
        <time>2022-05-05T07:56:59Z</time>
      </trkpt>
      <trkpt lat="46.75475" lon="4.71005">
        <ele>229</ele>
        <time>2022-05-05T07:57:41Z</time>
      </trkpt>
      <trkpt lat="46.75481" lon="4.70976">
        <ele>230</ele>
        <time>2022-05-05T07:58:09Z</time>
      </trkpt>
      <trkpt lat="46.75485" lon="4.70949">
        <ele>230</ele>
        <time>2022-05-05T07:58:34Z</time>
      </trkpt>
      <trkpt lat="46.75495" lon="4.70894">
        <ele>230</ele>
        <time>2022-05-05T07:59:26Z</time>
      </trkpt>
      <trkpt lat="46.75497" lon="4.70871">
        <ele>230</ele>
        <time>2022-05-05T07:59:47Z</time>
      </trkpt>
      <trkpt lat="46.75502" lon="4.70848">
        <ele>230</ele>
        <time>2022-05-05T08:00:09Z</time>
      </trkpt>
      <trkpt lat="46.75506" lon="4.7083">
        <ele>230</ele>
        <time>2022-05-05T08:00:26Z</time>
      </trkpt>
      <trkpt lat="46.75499" lon="4.7082">
        <ele>230</ele>
        <time>2022-05-05T08:00:40Z</time>
      </trkpt>
      <trkpt lat="46.75491" lon="4.70804">
        <ele>231</ele>
        <time>2022-05-05T08:00:58Z</time>
      </trkpt>
      <trkpt lat="46.75475" lon="4.70796">
        <ele>233</ele>
        <time>2022-05-05T08:01:20Z</time>
      </trkpt>
      <trkpt lat="46.75456" lon="4.70791">
        <ele>236</ele>
        <time>2022-05-05T08:01:46Z</time>
      </trkpt>
      <trkpt lat="46.75429" lon="4.70782">
        <ele>239</ele>
        <time>2022-05-05T08:02:23Z</time>
      </trkpt>
      <trkpt lat="46.75411" lon="4.70771">
        <ele>241</ele>
        <time>2022-05-05T08:02:49Z</time>
      </trkpt>
      <trkpt lat="46.7539" lon="4.70756">
        <ele>243</ele>
        <time>2022-05-05T08:03:20Z</time>
      </trkpt>
      <trkpt lat="46.75377" lon="4.70756">
        <ele>244</ele>
        <time>2022-05-05T08:03:37Z</time>
      </trkpt>
      <trkpt lat="46.75365" lon="4.70756">
        <ele>246</ele>
        <time>2022-05-05T08:03:54Z</time>
      </trkpt>
      <trkpt lat="46.75353" lon="4.70729">
        <ele>246</ele>
        <time>2022-05-05T08:04:23Z</time>
      </trkpt>
      <trkpt lat="46.75335" lon="4.70685">
        <ele>248</ele>
        <time>2022-05-05T08:05:10Z</time>
      </trkpt>
      <trkpt lat="46.75323" lon="4.70671">
        <ele>249</ele>
        <time>2022-05-05T08:05:30Z</time>
      </trkpt>
      <trkpt lat="46.75299" lon="4.70684">
        <ele>252</ele>
        <time>2022-05-05T08:06:04Z</time>
      </trkpt>
      <trkpt lat="46.7528" lon="4.70701">
        <ele>254</ele>
        <time>2022-05-05T08:06:34Z</time>
      </trkpt>
      <trkpt lat="46.75262" lon="4.70728">
        <ele>256</ele>
        <time>2022-05-05T08:07:09Z</time>
      </trkpt>
    </trkseg>
  </trk>
</gpx>